createdAt,value
2023-03-16T00:02:20.197Z,100166.34
2023-03-16T00:04:48.029Z,100163.75
2023-03-16T00:07:17.342Z,100171.53
2023-03-16T00:09:43.809Z,100168.91
2023-03-16T00:12:16.121Z,100165.44
2023-03-16T00:14:45.500Z,100162.81
2023-03-16T00:17:21.068Z,100167.16
2023-03-16T00:19:55.348Z,100160.19
2023-03-16T00:22:27.251Z,100167.09
2023-03-16T00:24:55.511Z,100169.69
2023-03-16T00:27:27.865Z,100165.34
2023-03-16T00:29:56.463Z,100163.63
2023-03-16T00:32:28.753Z,100165.34
2023-03-16T00:34:55.172Z,100167.06
2023-03-16T00:37:25.875Z,100167.91
2023-03-16T00:39:56.090Z,100165.31
2023-03-16T00:42:32.045Z,100158.34
2023-03-16T00:45:04.094Z,100150.53
2023-03-16T00:47:34.899Z,100150.53
2023-03-16T00:50:02.314Z,100158.31
2023-03-16T00:52:29.570Z,100159.19
2023-03-16T00:54:56.269Z,100156.56
2023-03-16T00:57:25.108Z,100150.47
2023-03-16T00:59:51.554Z,100148.75
2023-03-16T01:02:20.886Z,100145.25
2023-03-16T01:04:47.537Z,100143.53
2023-03-16T01:07:14.919Z,100142.63
2023-03-16T01:09:43.231Z,100146.97
2023-03-16T01:12:14.581Z,100146.94
2023-03-16T01:14:45.791Z,100142.59
2023-03-16T01:17:14.740Z,100141.72
2023-03-16T01:19:42.810Z,100139.97
2023-03-16T01:22:10.469Z,100127.84
2023-03-16T01:24:39.515Z,100131.28
2023-03-16T01:27:07.993Z,100122.59
2023-03-16T01:29:35.035Z,100124.34
2023-03-16T01:32:02.994Z,100123.47
2023-03-16T01:34:32.171Z,100126.91
2023-03-16T01:37:01.485Z,100125.19
2023-03-16T01:39:30.816Z,100130.34
2023-03-16T01:41:57.656Z,100130.34
2023-03-16T01:44:36.799Z,100131.22
2023-03-16T01:47:03.165Z,100121.66
2023-03-16T01:49:38.632Z,100116.44
2023-03-16T01:52:16.547Z,100117.28
2023-03-16T01:54:49.068Z,100109.47
2023-03-16T01:57:22.242Z,100110.34
2023-03-16T01:59:54.840Z,100098.16
2023-03-16T02:02:24.184Z,100099.03
2023-03-16T02:05:00.501Z,100106.84
2023-03-16T02:07:32.937Z,100108.56
2023-03-16T02:10:03.004Z,100123.28
2023-03-16T02:12:29.896Z,100128.47
2023-03-16T02:14:56.335Z,100129.31
2023-03-16T02:17:27.428Z,100120.63
2023-03-16T02:20:24.120Z,100111.97
2023-03-16T02:22:55.347Z,100108.47
2023-03-16T02:25:38.676Z,100105.88
2023-03-16T02:28:18.285Z,100103.25
2023-03-16T02:30:45.902Z,100089.38
2023-03-16T02:33:14.738Z,100090.22
2023-03-16T02:35:41.168Z,100096.28
2023-03-16T02:38:07.949Z,100094.53
2023-03-16T02:40:38.658Z,100100.59
2023-03-16T02:43:16.698Z,100098.84
2023-03-16T02:45:51.209Z,100087.56
2023-03-16T02:48:28.496Z,100083.22
2023-03-16T02:50:55.029Z,100079.78
2023-03-16T02:53:23.088Z,100076.28
2023-03-16T02:55:52.202Z,100078.00
2023-03-16T02:58:19.018Z,100076.28
2023-03-16T03:00:48.096Z,100069.31
2023-03-16T03:03:14.567Z,100081.44
2023-03-16T03:05:41.194Z,100081.41
2023-03-16T03:08:09.114Z,100089.19
2023-03-16T03:10:35.808Z,100077.91
2023-03-16T03:13:02.430Z,100067.50
2023-03-16T03:15:29.421Z,100073.56
2023-03-16T03:17:55.856Z,100065.78
2023-03-16T03:20:22.509Z,100061.44
2023-03-16T03:22:50.454Z,100058.81
2023-03-16T03:25:18.411Z,100070.06
2023-03-16T03:27:46.557Z,100071.81
2023-03-16T03:30:19.737Z,100070.06
2023-03-16T03:32:47.048Z,100070.94
2023-03-16T03:35:16.114Z,100063.13
2023-03-16T03:37:44.212Z,100059.66
2023-03-16T03:40:16.312Z,100058.75
2023-03-16T03:42:45.874Z,100065.69
2023-03-16T03:45:13.672Z,100055.25
2023-03-16T03:47:42.578Z,100052.66
2023-03-16T03:50:11.759Z,100055.25
2023-03-16T03:52:39.454Z,100061.28
2023-03-16T03:55:09.009Z,100060.41
2023-03-16T03:57:35.780Z,100073.38
2023-03-16T04:00:07.875Z,100061.28
2023-03-16T04:02:34.665Z,100069.03
2023-03-16T04:05:01.074Z,100063.84
2023-03-16T04:07:27.395Z,100056.91
2023-03-16T04:09:53.805Z,100048.25
2023-03-16T04:12:20.479Z,100048.25
2023-03-16T04:14:47.197Z,100046.50
2023-03-16T04:17:13.619Z,100051.69
2023-03-16T04:19:40.438Z,100043.03
2023-03-16T04:22:09.552Z,100037.84
2023-03-16T04:24:35.931Z,100042.13
2023-03-16T04:27:03.955Z,100048.19
2023-03-16T04:29:33.960Z,100047.31
2023-03-16T04:32:00.371Z,100051.66
2023-03-16T04:34:32.228Z,100055.97
2023-03-16T04:37:00.892Z,100049.03
2023-03-16T04:39:27.242Z,100041.22
2023-03-16T04:41:53.594Z,100045.53
2023-03-16T04:44:19.972Z,100044.66
2023-03-16T04:46:47.427Z,100047.25
2023-03-16T04:49:14.043Z,100042.91
2023-03-16T04:51:42.474Z,100038.56
2023-03-16T04:54:08.841Z,100039.41
2023-03-16T04:56:36.318Z,100041.16
2023-03-16T04:59:03.845Z,100036.81
2023-03-16T05:01:30.410Z,100045.50
2023-03-16T05:03:59.540Z,100045.50
2023-03-16T05:06:26.162Z,100041.16
2023-03-16T05:08:57.415Z,100037.72
2023-03-16T05:11:23.777Z,100030.78
2023-03-16T05:13:50.111Z,100029.91
2023-03-16T05:16:16.639Z,100023.84
2023-03-16T05:18:43.359Z,100027.31
2023-03-16T05:21:12.610Z,100029.03
2023-03-16T05:23:41.376Z,100035.06
2023-03-16T05:26:08.525Z,100035.97
2023-03-16T05:28:35.149Z,100041.16
2023-03-16T05:31:03.720Z,100034.22
2023-03-16T05:33:32.315Z,100025.56
2023-03-16T05:35:58.744Z,100034.22
2023-03-16T05:38:27.634Z,100025.56
2023-03-16T05:40:54.488Z,100029.03
2023-03-16T05:43:25.362Z,100025.56
2023-03-16T05:45:51.764Z,100028.19
2023-03-16T05:48:18.478Z,100023.00
2023-03-16T05:50:44.832Z,100025.66
2023-03-16T05:53:11.258Z,100030.88
2023-03-16T05:55:40.445Z,100023.13
2023-03-16T05:58:11.406Z,100024.91
2023-03-16T06:00:41.049Z,100026.72
2023-03-16T06:03:07.455Z,100033.72
2023-03-16T06:05:33.985Z,100027.69
2023-03-16T06:08:02.734Z,100034.66
2023-03-16T06:10:29.447Z,100033.84
2023-03-16T06:12:56.279Z,100032.16
2023-03-16T06:15:27.321Z,100027.88
2023-03-16T06:17:54.234Z,100020.97
2023-03-16T06:20:24.200Z,100028.81
2023-03-16T06:22:51.811Z,100032.34
2023-03-16T06:25:19.608Z,100037.59
2023-03-16T06:27:49.480Z,100031.53
2023-03-16T06:30:18.133Z,100028.16
2023-03-16T06:32:46.118Z,100027.31
2023-03-16T06:35:14.864Z,100028.25
2023-03-16T06:37:41.612Z,100040.44
2023-03-16T06:40:13.471Z,100032.63
2023-03-16T06:42:45.640Z,100025.75
2023-03-16T06:45:13.105Z,100034.44
2023-03-16T06:47:39.463Z,100031.84
2023-03-16T06:50:06.616Z,100025.81
2023-03-16T06:52:33.205Z,100026.72
2023-03-16T06:55:01.410Z,100023.25
2023-03-16T06:57:27.805Z,100025.88
2023-03-16T06:59:54.223Z,100030.25
2023-03-16T07:02:24.015Z,100033.72
2023-03-16T07:04:51.555Z,100028.53
2023-03-16T07:07:19.216Z,100029.41
2023-03-16T07:09:49.329Z,100030.28
2023-03-16T07:12:15.754Z,100027.69
2023-03-16T07:14:42.149Z,100024.19
2023-03-16T07:17:08.941Z,100032.00
2023-03-16T07:19:36.553Z,100027.69
2023-03-16T07:22:03.508Z,100023.28
2023-03-16T07:24:30.727Z,100027.63
2023-03-16T07:26:57.136Z,100025.84
2023-03-16T07:29:23.588Z,100027.59
2023-03-16T07:31:50.009Z,100031.03
2023-03-16T07:34:16.369Z,100032.72
2023-03-16T07:36:42.730Z,100036.16
2023-03-16T07:39:09.075Z,100028.28
2023-03-16T07:41:35.447Z,100027.34
2023-03-16T07:44:02.228Z,100036.00
2023-03-16T07:46:28.584Z,100026.38
2023-03-16T07:48:56.280Z,100037.59
2023-03-16T07:51:22.616Z,100028.81
2023-03-16T07:53:49.197Z,100028.69
2023-03-16T07:56:15.536Z,100021.59
2023-03-16T07:58:41.955Z,100031.81
2023-03-16T08:01:10.863Z,100032.22
2023-03-16T08:03:38.126Z,100027.28
2023-03-16T08:06:05.489Z,100017.00
2023-03-16T08:08:32.745Z,100004.97
2023-03-16T08:10:59.073Z,100009.66
2023-03-16T08:13:27.350Z,100012.50
2023-03-16T08:15:58.519Z,100011.63
2023-03-16T08:18:26.546Z,100017.09
2023-03-16T08:20:53.387Z,99999.78
2023-03-16T08:23:19.811Z,100005.09
2023-03-16T08:25:46.237Z,100007.91
2023-03-16T08:28:12.771Z,100006.31
2023-03-16T08:30:45.851Z,100002.91
2023-03-16T08:33:12.697Z,99990.22
2023-03-16T08:35:43.919Z,99989.22
2023-03-16T08:38:13.519Z,99994.19
2023-03-16T08:40:42.115Z,99982.84
2023-03-16T08:43:09.754Z,99977.06
2023-03-16T08:45:37.279Z,99977.63
2023-03-16T08:48:04.922Z,99974.22
2023-03-16T08:50:31.538Z,99970.97
2023-03-16T08:52:58.116Z,99967.75
2023-03-16T08:55:24.491Z,99962.66
2023-03-16T08:57:50.853Z,99966.50
2023-03-16T09:00:17.904Z,99962.66
2023-03-16T09:02:44.601Z,99961.66
2023-03-16T09:05:13.448Z,99960.13
2023-03-16T09:07:39.970Z,99960.06
2023-03-16T09:10:08.267Z,99954.75
2023-03-16T09:12:36.194Z,99964.41
2023-03-16T09:15:05.406Z,99958.13
2023-03-16T09:17:31.793Z,99950.13
2023-03-16T09:20:05.524Z,99949.75
2023-03-16T09:22:41.910Z,99947.19
2023-03-16T09:25:10.434Z,99948.91
2023-03-16T09:27:37.441Z,99937.31
2023-03-16T09:30:09.245Z,99933.78
2023-03-16T09:32:37.267Z,99927.81
2023-03-16T09:35:06.216Z,99936.44
2023-03-16T09:37:44.577Z,99939.94
2023-03-16T09:40:22.892Z,99936.09
2023-03-16T09:43:03.691Z,99937.22
2023-03-16T09:45:46.342Z,99942.22
2023-03-16T09:48:15.510Z,99925.09
2023-03-16T09:50:48.702Z,99930.47
2023-03-16T09:53:22.160Z,99930.47
2023-03-16T09:55:56.013Z,99925.97
2023-03-16T09:58:22.952Z,99925.53
2023-03-16T10:00:59.328Z,99926.25
2023-03-16T10:03:48.086Z,99905.44
2023-03-16T10:06:15.295Z,99916.97
2023-03-16T10:08:51.363Z,99922.03
2023-03-16T10:11:42.244Z,99921.31
2023-03-16T10:14:47.619Z,99930.00
2023-03-16T10:17:23.085Z,99921.72
2023-03-16T10:20:18.103Z,99917.06
2023-03-16T10:22:47.266Z,99929.53
2023-03-16T10:25:49.626Z,99914.81
2023-03-16T10:28:30.483Z,99916.63
2023-03-16T10:31:03.538Z,99914.75
2023-03-16T10:33:36.618Z,99917.97
2023-03-16T10:36:27.146Z,99907.56
2023-03-16T10:38:58.044Z,99899.53
2023-03-16T10:41:30.524Z,99896.31
2023-03-16T10:44:15.062Z,99905.56
2023-03-16T10:46:48.583Z,99899.97
2023-03-16T10:49:25.774Z,99904.28
2023-03-16T10:51:55.802Z,99887.69
2023-03-16T10:54:30.752Z,99888.16
2023-03-16T10:56:58.685Z,99886.38
2023-03-16T10:59:35.248Z,99872.63
2023-03-16T11:02:34.901Z,99873.09
2023-03-16T11:05:41.947Z,99861.63
2023-03-16T11:08:40.069Z,99865.00
2023-03-16T11:11:16.584Z,99870.50
2023-03-16T11:13:52.350Z,99872.53
2023-03-16T11:16:43.599Z,99867.75
2023-03-16T11:19:24.587Z,99877.06
2023-03-16T11:35:39.899Z,99855.19
2023-03-16T11:38:33.982Z,99836.47
2023-03-16T11:41:03.888Z,99845.31
2023-03-16T11:44:15.611Z,99837.19
2023-03-16T11:47:17.325Z,99837.97
2023-03-16T11:49:46.325Z,99850.56
2023-03-16T11:52:35.482Z,99838.66
2023-03-16T11:55:04.832Z,99836.66
2023-03-16T11:57:42.855Z,99831.28
2023-03-16T12:00:36.932Z,99825.28
2023-03-16T12:03:37.068Z,99829.44
2023-03-16T12:06:48.619Z,99816.81
2023-03-16T12:09:51.429Z,99816.44
2023-03-16T12:12:37.519Z,99813.56
2023-03-16T12:15:31.366Z,99811.31
2023-03-16T12:19:21.930Z,99827.91
2023-03-16T12:21:59.694Z,99817.28
2023-03-16T12:24:33.906Z,99812.09
2023-03-16T12:27:01.449Z,99804.13
2023-03-16T12:30:08.850Z,99801.06
2023-03-16T12:33:15.943Z,99796.00
2023-03-16T12:35:52.723Z,99795.63
2023-03-16T12:38:28.597Z,99790.78
2023-03-16T12:41:23.295Z,99786.16
2023-03-16T12:44:03.095Z,99781.00
2023-03-16T12:46:40.584Z,99787.13
2023-03-16T12:49:08.982Z,99788.13
2023-03-16T12:51:41.471Z,99784.53
2023-03-16T12:54:25.384Z,99766.41
2023-03-16T12:56:59.519Z,99775.00
2023-03-16T12:59:38.252Z,99769.56
2023-03-16T13:02:06.747Z,99770.84
2023-03-16T13:04:42.118Z,99768.47
2023-03-16T13:07:16.243Z,99763.25
2023-03-16T13:09:51.643Z,99754.78
2023-03-16T13:12:31.640Z,99762.69
2023-03-16T13:14:59.054Z,99749.06
2023-03-16T13:17:34.238Z,99751.50
2023-03-16T13:20:18.194Z,99738.94
2023-03-16T13:23:18.815Z,99742.59
2023-03-16T13:26:00.239Z,99740.28
2023-03-16T13:28:31.592Z,99741.63
2023-03-16T13:30:58.590Z,99736.09
2023-03-16T13:33:28.477Z,99725.56
2023-03-16T13:35:58.749Z,99727.63
2023-03-16T13:38:28.400Z,99727.03
2023-03-16T13:40:58.034Z,99735.19
2023-03-16T13:43:31.840Z,99727.03
2023-03-16T13:45:59.233Z,99727.69
2023-03-16T13:48:25.708Z,99724.19
2023-03-16T13:50:53.894Z,99728.25
2023-03-16T13:53:33.512Z,99719.06
2023-03-16T13:56:02.609Z,99708.63
2023-03-16T13:58:36.262Z,99718.16
2023-03-16T14:01:05.692Z,99717.88
2023-03-16T14:03:38.740Z,99711.28
2023-03-16T14:06:07.200Z,99712.31
2023-03-16T14:08:34.638Z,99708.28
2023-03-16T14:11:04.829Z,99703.34
2023-03-16T14:13:36.214Z,99693.41
2023-03-16T14:16:12.028Z,99684.22
2023-03-16T14:18:48.815Z,99692.16
2023-03-16T14:21:19.750Z,99688.22
2023-03-16T14:23:51.332Z,99680.41
2023-03-16T14:26:18.922Z,99674.72
2023-03-16T14:29:02.743Z,99670.78
2023-03-16T14:31:41.168Z,99662.09
2023-03-16T14:34:31.428Z,99657.94
2023-03-16T14:37:10.078Z,99662.19
2023-03-16T14:39:37.594Z,99660.19
2023-03-16T14:42:05.349Z,99653.31
2023-03-16T14:44:35.933Z,99664.44
2023-03-16T14:47:04.996Z,99657.94
2023-03-16T14:49:35.697Z,99668.97
2023-03-16T14:52:15.921Z,99667.53
2023-03-16T14:54:42.523Z,99661.38
2023-03-16T14:57:17.367Z,99657.31
2023-03-16T14:59:44.011Z,99647.44
2023-03-16T15:02:25.086Z,99637.53
2023-03-16T15:04:51.852Z,99640.97
2023-03-16T15:07:30.487Z,99642.75
2023-03-16T15:10:07.075Z,99639.91
2023-03-16T15:12:35.009Z,99635.16
2023-03-16T15:15:17.692Z,99646.72
2023-03-16T15:17:49.217Z,99635.66
2023-03-16T15:20:19.824Z,99639.13
2023-03-16T15:22:48.170Z,99636.38
2023-03-16T15:25:37.558Z,99640.78
2023-03-16T15:28:12.653Z,99646.47
2023-03-16T15:30:39.236Z,99641.31
2023-03-16T15:33:06.779Z,99638.75
2023-03-16T15:35:33.452Z,99621.66
2023-03-16T15:38:02.478Z,99622.50
2023-03-16T15:40:29.866Z,99615.72
2023-03-16T15:42:56.973Z,99612.19
2023-03-16T15:45:24.012Z,99602.63
2023-03-16T15:47:52.557Z,99591.88
2023-03-16T15:50:21.873Z,99592.03
2023-03-16T15:52:54.182Z,99600.16
2023-03-16T15:55:28.017Z,99595.88
2023-03-16T15:58:00.388Z,99594.94
2023-03-16T16:00:33.180Z,99589.66
2023-03-16T16:03:01.924Z,99588.94
2023-03-16T16:05:30.978Z,99581.84
2023-03-16T16:07:58.377Z,99594.22
2023-03-16T16:10:27.079Z,99582.78
2023-03-16T16:12:55.742Z,99574.03
2023-03-16T16:15:33.732Z,99582.06
2023-03-16T16:18:20.354Z,99574.38
2023-03-16T16:20:50.214Z,99569.41
2023-03-16T16:23:17.956Z,99569.31
2023-03-16T16:25:44.902Z,99566.09
2023-03-16T16:28:19.632Z,99574.97
2023-03-16T16:30:46.380Z,99568.19
2023-03-16T16:33:30.115Z,99566.38
2023-03-16T16:36:00.623Z,99573.59
2023-03-16T16:38:27.963Z,99564.81
2023-03-16T16:40:58.147Z,99564.16
2023-03-16T16:43:32.733Z,99570.47
2023-03-16T16:46:04.157Z,99566.88
2023-03-16T16:48:38.157Z,99566.97
2023-03-16T16:51:09.715Z,99574.91
2023-03-16T16:53:36.446Z,99562.88
2023-03-16T16:56:02.985Z,99571.88
2023-03-16T16:58:31.789Z,99563.09
2023-03-16T17:01:01.076Z,99560.66
2023-03-16T17:03:29.903Z,99566.09
2023-03-16T17:06:00.037Z,99561.13
2023-03-16T17:08:30.029Z,99561.13
2023-03-16T17:10:57.133Z,99556.84
2023-03-16T17:13:29.895Z,99551.88
2023-03-16T17:15:57.558Z,99559.09
2023-03-16T17:18:24.750Z,99561.88
2023-03-16T17:21:03.914Z,99551.41
2023-03-16T17:23:34.582Z,99551.69
2023-03-16T17:26:13.798Z,99553.66
2023-03-16T17:28:47.374Z,99549.59
2023-03-16T17:31:19.533Z,99555.78
2023-03-16T17:33:46.107Z,99543.59
2023-03-16T17:36:16.764Z,99551.69
2023-03-16T17:38:44.006Z,99550.19
2023-03-16T17:41:23.890Z,99545.13
2023-03-16T17:43:51.750Z,99555.72
2023-03-16T17:46:20.606Z,99558.56
2023-03-16T17:48:47.868Z,99555.28
2023-03-16T17:51:16.835Z,99551.16
2023-03-16T17:53:49.915Z,99550.53
2023-03-16T17:56:23.343Z,99548.94
2023-03-16T17:58:53.559Z,99547.22
2023-03-16T18:01:25.543Z,99542.22
2023-03-16T18:04:10.889Z,99544.22
2023-03-16T18:06:41.624Z,99541.66
2023-03-16T18:11:49.597Z,99552.63
2023-03-16T18:14:37.592Z,99545.88
2023-03-16T18:17:35.605Z,99543.44
2023-03-16T18:20:03.753Z,99534.81
2023-03-16T18:22:34.792Z,99534.97
2023-03-16T18:25:06.397Z,99535.97
2023-03-16T18:27:34.675Z,99545.66
2023-03-16T18:30:07.821Z,99545.78
2023-03-16T18:32:36.705Z,99545.13
2023-03-16T18:35:04.247Z,99555.75
2023-03-16T18:37:31.871Z,99549.84
2023-03-16T18:40:01.665Z,99548.22
2023-03-16T18:42:37.362Z,99543.00
2023-03-16T18:45:09.291Z,99545.53
2023-03-16T18:47:38.067Z,99542.25
2023-03-16T18:50:07.488Z,99541.50
2023-03-16T18:52:35.874Z,99535.44
2023-03-16T18:55:02.460Z,99540.78
2023-03-16T18:57:29.173Z,99540.91
2023-03-16T19:00:00.201Z,99539.13
2023-03-16T19:02:40.108Z,99544.50
2023-03-16T19:10:34.083Z,99538.59
2023-03-16T19:13:00.768Z,99534.25
2023-03-16T19:15:31.114Z,99541.31
2023-03-16T19:17:58.631Z,99534.47
2023-03-16T19:37:27.007Z,99530.78
2023-03-16T19:39:53.460Z,99526.53
2023-03-16T19:42:31.401Z,99525.75
2023-03-16T19:45:00.488Z,99521.44
2023-03-16T19:47:32.007Z,99527.72
2023-03-16T19:49:59.993Z,99524.31
2023-03-16T19:52:38.968Z,99519.25
2023-03-16T19:55:05.824Z,99519.25
2023-03-16T19:57:33.894Z,99512.44
2023-03-16T20:00:01.888Z,99513.50
2023-03-16T20:02:40.103Z,99508.41
2023-03-16T20:05:08.518Z,99510.22
2023-03-16T20:07:40.141Z,99514.81
2023-03-16T20:10:10.244Z,99513.28
2023-03-16T20:12:42.075Z,99509.16
2023-03-16T20:15:20.783Z,99509.38
2023-03-16T20:17:52.006Z,99524.53
2023-03-16T20:20:29.598Z,99512.38
2023-03-16T20:22:59.643Z,99510.75
2023-03-16T20:25:31.788Z,99516.06
2023-03-16T20:28:05.239Z,99514.50
2023-03-16T20:30:32.046Z,99514.59
2023-03-16T20:33:08.087Z,99508.56
2023-03-16T20:35:38.965Z,99509.59
2023-03-16T20:38:13.901Z,99514.84
2023-03-16T20:40:44.815Z,99514.00
2023-03-16T20:43:23.679Z,99514.94
2023-03-16T20:45:56.763Z,99508.84
2023-03-16T20:48:26.071Z,99500.97
2023-03-16T20:50:56.443Z,99494.03
2023-03-16T20:53:24.446Z,99502.84
2023-03-16T20:55:54.743Z,99499.31
2023-03-16T20:58:34.523Z,99493.31
2023-03-16T21:01:03.605Z,99494.22
2023-03-16T21:03:34.429Z,99489.06
2023-03-16T21:06:01.205Z,99499.59
2023-03-16T21:08:41.654Z,99491.69
2023-03-16T21:11:19.302Z,99493.78
2023-03-16T21:13:52.792Z,99493.66
2023-03-16T21:16:22.552Z,99499.03
2023-03-16T21:18:52.463Z,99494.56
2023-03-16T21:21:19.722Z,99498.19
2023-03-16T21:23:47.823Z,99490.31
2023-03-16T21:26:24.980Z,99488.69
2023-03-16T21:28:58.197Z,99485.25
2023-03-16T21:31:26.522Z,99483.53
2023-03-16T21:33:56.955Z,99482.78
2023-03-16T21:36:27.348Z,99479.34
2023-03-16T21:38:57.851Z,99477.56
2023-03-16T21:41:25.181Z,99486.31
2023-03-16T21:43:55.817Z,99469.94
2023-03-16T21:46:24.384Z,99465.53
2023-03-16T21:48:56.320Z,99473.56
2023-03-16T21:51:30.871Z,99470.94
2023-03-16T21:53:58.832Z,99468.31
2023-03-16T21:56:28.197Z,99469.34
2023-03-16T21:58:56.927Z,99456.28
2023-03-16T22:01:31.515Z,99456.28
2023-03-16T22:04:04.018Z,99462.50
2023-03-16T22:06:31.636Z,99453.94
2023-03-16T22:08:59.977Z,99453.09
